Time;durP1;ratioP1;P1;durP2;ratioP2;P2;SDS_P1;SDS_P2;PMS_P1;PMS_P2;Temp;Humidity;BMP_temperature;BMP_pressure;BME280_temperature;BME280_humidity;BME280_pressure;Samples;Min_cycle;Max_cycle;Signal;HPM_P1;HPM_P2
2022/03/06 00:00:07;;;;;;;14.82;7.72;;;4.60;72.80;;;;;;5050444;28;20021;-63
2022/03/06 00:02:32;;;;;;;13.35;7.07;;;4.60;72.70;;;;;;5049838;28;20052;-63
2022/03/06 00:04:58;;;;;;;12.60;6.72;;;4.60;72.50;;;;;;5048177;28;20132;-63
2022/03/06 00:07:25;;;;;;;11.95;6.60;;;4.50;72.00;;;;;;5046899;28;20059;-63
2022/03/06 00:09:50;;;;;;;13.73;7.95;;;4.50;72.30;;;;;;5051244;28;20029;-63
2022/03/06 00:12:16;;;;;;;9.95;5.72;;;4.50;72.30;;;;;;5052500;28;20396;-63
2022/03/06 00:14:41;;;;;;;8.98;6.28;;;4.40;72.10;;;;;;5050643;28;20384;-63
2022/03/06 00:17:07;;;;;;;10.15;6.25;;;4.30;71.90;;;;;;5052974;28;20033;-63
2022/03/06 00:19:32;;;;;;;10.18;6.20;;;4.30;72.10;;;;;;5051161;28;20025;-64
2022/03/06 00:21:58;;;;;;;9.75;5.93;;;4.30;72.30;;;;;;5048808;28;20143;-63
2022/03/06 00:24:23;;;;;;;13.30;7.05;;;4.30;72.40;;;;;;5051763;28;20498;-63
2022/03/06 00:26:49;;;;;;;10.13;6.80;;;4.40;72.60;;;;;;5051690;28;20027;-63
2022/03/06 00:29:14;;;;;;;11.35;6.78;;;4.40;72.60;;;;;;5052415;28;20021;-63
2022/03/06 00:31:39;;;;;;;9.73;6.28;;;4.40;72.60;;;;;;5050651;28;20108;-62
2022/03/06 00:34:05;;;;;;;10.00;7.15;;;4.40;72.60;;;;;;5049729;28;20112;-63
2022/03/06 00:36:31;;;;;;;10.60;7.13;;;4.40;72.80;;;;;;5035912;28;20480;-63
2022/03/06 00:38:56;;;;;;;10.93;7.18;;;4.40;72.80;;;;;;5034027;28;20029;-62
2022/03/06 00:41:23;;;;;;;11.65;6.53;;;4.40;73.00;;;;;;5047449;28;20102;-62
2022/03/06 00:43:49;;;;;;;10.80;7.00;;;4.50;73.50;;;;;;5052203;28;20044;-62
2022/03/06 00:46:14;;;;;;;9.35;6.38;;;4.50;73.70;;;;;;5038149;28;20022;-63
2022/03/06 00:48:40;;;;;;;10.48;6.65;;;4.60;73.20;;;;;;5044438;28;20040;-62
2022/03/06 00:51:05;;;;;;;9.43;6.07;;;4.50;72.70;;;;;;5048099;28;20448;-63
2022/03/06 00:53:31;;;;;;;9.85;6.22;;;4.50;72.20;;;;;;5052068;28;20544;-63
2022/03/06 00:55:56;;;;;;;9.63;6.28;;;4.50;72.00;;;;;;5050674;28;20511;-63
2022/03/06 00:58:22;;;;;;;9.45;5.63;;;4.40;71.90;;;;;;5052627;28;20412;-63
2022/03/06 01:00:48;;;;;;;8.00;5.88;;;4.50;72.00;;;;;;5049940;28;20025;-64
2022/03/06 01:03:16;;;;;;;8.05;5.75;;;4.50;71.90;;;;;;5050607;28;20350;-63
2022/03/06 01:05:42;;;;;;;9.55;6.13;;;4.50;71.90;;;;;;5050758;28;20040;-62
2022/03/06 01:08:09;;;;;;;9.73;6.50;;;4.50;71.80;;;;;;5050633;28;20392;-62
2022/03/06 01:10:36;;;;;;;12.45;6.75;;;4.50;71.90;;;;;;5050629;28;20025;-63
2022/03/06 01:13:03;;;;;;;10.68;6.50;;;4.50;72.00;;;;;;5051547;28;20033;-63
2022/03/06 01:15:28;;;;;;;10.80;6.88;;;4.60;72.10;;;;;;5042741;28;20034;-63
2022/03/06 01:17:53;;;;;;;9.65;6.50;;;4.60;72.10;;;;;;5031601;28;20021;-64
2022/03/06 01:20:19;;;;;;;7.97;5.93;;;4.60;72.00;;;;;;5044308;28;20029;-64
2022/03/06 01:22:46;;;;;;;9.77;6.10;;;4.60;71.90;;;;;;5051026;28;20035;-64
2022/03/06 01:25:11;;;;;;;10.13;6.22;;;4.60;71.90;;;;;;5050140;28;20045;-63
2022/03/06 01:27:37;;;;;;;8.73;6.07;;;4.60;71.80;;;;;;5051704;28;20036;-63
2022/03/06 01:30:05;;;;;;;9.05;6.05;;;4.50;71.50;;;;;;5047827;28;20396;-64
2022/03/06 01:32:32;;;;;;;9.50;6.07;;;4.50;71.30;;;;;;5052131;28;20058;-64
2022/03/06 01:34:58;;;;;;;11.10;6.55;;;4.40;71.30;;;;;;5046267;28;20033;-63
2022/03/06 01:37:23;;;;;;;10.50;6.50;;;4.40;71.30;;;;;;5041988;28;20033;-64
2022/03/06 01:39:48;;;;;;;9.70;6.50;;;4.40;71.50;;;;;;5050093;28;20025;-63
2022/03/06 01:42:14;;;;;;;11.65;7.55;;;4.30;71.70;;;;;;5051060;28;20025;-63
2022/03/06 01:44:39;;;;;;;9.75;6.75;;;4.30;71.70;;;;;;5048788;28;20041;-64
2022/03/06 01:47:05;;;;;;;8.30;6.65;;;4.30;71.60;;;;;;5031529;28;20096;-64
2022/03/06 01:49:31;;;;;;;16.02;7.93;;;4.30;71.60;;;;;;5034062;28;20029;-63
2022/03/06 01:51:56;;;;;;;9.40;7.00;;;4.30;71.60;;;;;;5050257;28;20021;-63
2022/03/06 01:54:22;;;;;;;11.10;7.30;;;4.30;71.50;;;;;;5050998;28;20032;-63
2022/03/06 01:56:47;;;;;;;9.15;7.18;;;4.30;71.50;;;;;;5050149;28;20470;-64
2022/03/06 01:59:13;;;;;;;12.60;7.45;;;4.30;71.90;;;;;;5050885;28;20032;-63
2022/03/06 02:01:38;;;;;;;13.20;8.82;;;4.40;71.40;;;;;;5049525;28;20021;-63
2022/03/06 02:04:04;;;;;;;11.20;8.30;;;4.30;71.00;;;;;;5049503;28;20909;-64
2022/03/06 02:06:29;;;;;;;15.90;8.63;;;4.20;71.10;;;;;;5049480;28;20128;-64
2022/03/06 02:08:55;;;;;;;11.95;9.05;;;4.20;71.30;;;;;;5050700;28;20075;-63
2022/03/06 02:11:22;;;;;;;12.02;9.43;;;4.20;71.50;;;;;;5049423;28;20036;-63
2022/03/06 02:13:47;;;;;;;13.30;9.10;;;4.00;71.30;;;;;;5050621;28;20029;-63
2022/03/06 02:16:13;;;;;;;12.60;9.35;;;4.00;71.70;;;;;;5040289;28;20382;-63
2022/03/06 02:18:39;;;;;;;10.90;8.85;;;4.00;71.70;;;;;;5043017;28;20025;-63
2022/03/06 02:21:10;;;;;;;12.20;9.40;;;4.00;71.70;;;;;;5048962;28;20079;-63
2022/03/06 02:23:36;;;;;;;13.35;9.15;;;4.00;71.50;;;;;;5050582;28;20349;-63
2022/03/06 02:26:02;;;;;;;15.27;9.63;;;4.00;71.50;;;;;;5049561;28;20035;-63
2022/03/06 02:28:28;;;;;;;12.10;8.18;;;3.90;71.40;;;;;;5050582;28;20482;-63
2022/03/06 02:30:55;;;;;;;11.75;9.18;;;3.80;71.60;;;;;;5048615;28;20060;-63
2022/03/06 02:33:21;;;;;;;15.30;9.45;;;3.80;71.80;;;;;;5046972;28;20037;-63
2022/03/06 02:35:46;;;;;;;13.65;8.38;;;3.80;71.80;;;;;;5048667;28;20033;-63
2022/03/06 02:38:12;;;;;;;12.85;9.40;;;3.70;71.80;;;;;;5054225;28;20456;-63
2022/03/06 02:40:39;;;;;;;11.45;8.27;;;3.70;71.70;;;;;;5052659;28;20518;-63
2022/03/06 02:43:05;;;;;;;13.48;8.88;;;3.60;71.80;;;;;;5054496;28;20048;-63
2022/03/06 02:45:31;;;;;;;11.23;7.90;;;3.60;71.90;;;;;;5053070;28;20056;-64
2022/03/06 02:47:57;;;;;;;11.02;7.25;;;3.60;72.00;;;;;;5054463;28;20036;-63
2022/03/06 02:50:26;;;;;;;12.95;8.27;;;3.60;72.10;;;;;;5053487;28;20048;-63
2022/03/06 02:52:53;;;;;;;11.57;7.65;;;3.60;72.20;;;;;;5053843;28;20064;-62
2022/03/06 02:55:19;;;;;;;8.52;6.90;;;3.70;72.20;;;;;;5052681;28;20025;-63
2022/03/06 02:57:45;;;;;;;9.18;6.72;;;3.70;72.30;;;;;;5054197;28;20059;-62
2022/03/06 03:00:14;;;;;;;10.70;6.53;;;3.70;72.30;;;;;;5053047;28;20133;-62
2022/03/06 03:02:40;;;;;;;8.15;6.00;;;3.70;72.30;;;;;;5046070;28;20049;-63
2022/03/06 03:05:12;;;;;;;9.55;6.70;;;3.60;72.20;;;;;;5052206;28;20538;-63
2022/03/06 03:07:39;;;;;;;9.57;6.15;;;3.60;72.10;;;;;;5054336;28;20033;-63
2022/03/06 03:10:06;;;;;;;11.10;6.45;;;3.60;72.00;;;;;;5051790;28;20086;-63
2022/03/06 03:12:32;;;;;;;9.45;6.10;;;3.60;72.20;;;;;;5053784;28;20025;-62
2022/03/06 03:14:57;;;;;;;11.10;7.00;;;3.60;72.10;;;;;;5051655;28;20041;-63
2022/03/06 03:17:23;;;;;;;10.68;6.22;;;3.70;72.10;;;;;;5054060;28;20565;-62
2022/03/06 03:19:48;;;;;;;13.95;7.22;;;3.60;71.90;;;;;;5051788;28;20147;-63
2022/03/06 03:22:14;;;;;;;9.45;5.97;;;3.60;72.10;;;;;;5036376;28;20151;-62
2022/03/06 03:24:39;;;;;;;10.13;6.07;;;3.60;71.90;;;;;;5047618;28;20043;-63
2022/03/06 03:27:05;;;;;;;9.77;5.78;;;3.50;71.60;;;;;;5033972;28;20033;-62
2022/03/06 03:29:31;;;;;;;9.88;5.88;;;3.50;71.70;;;;;;5046675;28;20024;-62
2022/03/06 03:31:56;;;;;;;11.38;5.85;;;3.50;71.70;;;;;;5052011;28;20044;-62
2022/03/06 03:34:22;;;;;;;12.48;6.25;;;3.50;71.70;;;;;;5053852;28;20025;-62
2022/03/06 03:36:47;;;;;;;10.75;6.28;;;3.50;71.50;;;;;;5052224;28;20380;-62
2022/03/06 03:39:13;;;;;;;11.07;6.68;;;3.50;72.20;;;;;;5053497;28;20025;-62
2022/03/06 03:41:38;;;;;;;10.68;6.28;;;3.40;71.80;;;;;;5051544;28;20524;-62
2022/03/06 03:44:04;;;;;;;8.57;5.72;;;3.40;71.80;;;;;;5053098;28;20427;-62
2022/03/06 03:46:30;;;;;;;12.25;6.47;;;3.50;72.00;;;;;;5036218;28;20034;-63
2022/03/06 03:48:55;;;;;;;9.70;6.30;;;3.50;72.10;;;;;;5049035;28;20025;-62
2022/03/06 03:51:20;;;;;;;9.77;6.30;;;3.50;72.20;;;;;;5051744;28;20108;-62
2022/03/06 03:53:46;;;;;;;8.35;5.65;;;3.50;72.20;;;;;;5053152;28;20144;-62
2022/03/06 03:56:11;;;;;;;10.70;6.13;;;3.50;72.20;;;;;;5048923;28;20033;-63
2022/03/06 03:58:37;;;;;;;8.98;5.53;;;3.40;71.90;;;;;;5052377;28;20188;-63
2022/03/06 04:01:02;;;;;;;9.27;5.88;;;3.50;71.90;;;;;;5041703;28;20025;-62
2022/03/06 04:03:28;;;;;;;10.38;6.22;;;3.50;71.90;;;;;;5052880;28;20100;-62
2022/03/06 04:05:53;;;;;;;8.70;4.85;;;3.40;71.80;;;;;;5051383;28;20033;-62
2022/03/06 04:08:19;;;;;;;7.80;4.88;;;3.30;71.30;;;;;;5035039;28;20024;-62
2022/03/06 04:10:45;;;;;;;9.15;5.10;;;3.30;71.00;;;;;;5050604;28;20033;-63
2022/03/06 04:13:11;;;;;;;7.55;4.82;;;3.30;71.10;;;;;;5052872;28;20017;-62
2022/03/06 04:15:37;;;;;;;9.05;4.72;;;3.30;71.20;;;;;;5050818;28;20079;-63
2022/03/06 04:18:03;;;;;;;7.45;4.15;;;3.40;71.30;;;;;;5052980;28;20021;-64
2022/03/06 04:20:29;;;;;;;6.97;4.05;;;3.40;70.90;;;;;;5051114;28;20033;-63
2022/03/06 04:22:56;;;;;;;10.80;4.72;;;3.40;70.70;;;;;;5052670;28;20075;-63
2022/03/06 04:25:22;;;;;;;9.30;5.18;;;3.40;70.80;;;;;;5050164;28;20456;-63
2022/03/06 04:27:47;;;;;;;9.88;4.88;;;3.40;70.80;;;;;;5051393;28;20021;-63
2022/03/06 04:30:13;;;;;;;8.30;5.00;;;3.40;70.70;;;;;;5050233;28;20095;-62
2022/03/06 04:32:38;;;;;;;7.75;4.70;;;3.40;71.20;;;;;;5051045;28;20039;-63
2022/03/06 04:35:05;;;;;;;12.20;5.72;;;3.50;70.70;;;;;;5049511;28;20084;-62
2022/03/06 04:37:31;;;;;;;11.48;5.30;;;3.50;70.60;;;;;;5052456;28;20079;-62
2022/03/06 04:39:56;;;;;;;10.65;5.80;;;3.50;70.40;;;;;;5050795;28;20388;-63
2022/03/06 04:42:22;;;;;;;7.85;4.82;;;3.60;70.10;;;;;;5052236;28;20025;-63
2022/03/06 04:44:48;;;;;;;6.70;5.05;;;3.60;69.90;;;;;;5050500;28;20060;-63
2022/03/06 04:47:14;;;;;;;10.32;5.32;;;3.60;68.80;;;;;;5052318;28;20029;-63
2022/03/06 04:49:39;;;;;;;10.85;5.43;;;3.60;69.20;;;;;;5050897;28;20064;-62
2022/03/06 04:52:05;;;;;;;7.80;5.68;;;3.60;69.30;;;;;;5051779;28;20090;-63
2022/03/06 04:54:31;;;;;;;9.73;5.35;;;3.60;69.20;;;;;;5050371;28;20414;-63
2022/03/06 04:56:56;;;;;;;10.18;6.05;;;3.70;69.30;;;;;;5045058;28;20556;-62
2022/03/06 04:59:22;;;;;;;9.68;6.13;;;3.70;68.50;;;;;;5051832;28;20028;-63
2022/03/06 05:01:47;;;;;;;9.07;5.70;;;3.60;68.70;;;;;;5048319;28;20465;-62
2022/03/06 05:04:13;;;;;;;9.40;6.10;;;3.60;68.90;;;;;;5052322;28;20041;-62
2022/03/06 05:06:38;;;;;;;7.75;5.60;;;3.70;69.50;;;;;;5048288;28;20020;-62
2022/03/06 05:09:04;;;;;;;10.50;6.15;;;3.70;69.00;;;;;;5030557;28;20026;-63
2022/03/06 05:11:29;;;;;;;8.10;5.20;;;3.70;68.80;;;;;;5047310;28;20490;-62
2022/03/06 05:13:55;;;;;;;10.93;6.97;;;3.70;68.80;;;;;;5051637;28;20032;-62
2022/03/06 05:16:21;;;;;;;11.55;6.32;;;3.70;67.50;;;;;;5036620;28;20438;-62
2022/03/06 05:18:46;;;;;;;11.10;5.95;;;3.70;68.10;;;;;;5031974;28;20185;-62
2022/03/06 05:21:12;;;;;;;10.93;6.70;;;3.70;67.90;;;;;;5031914;28;20030;-62
2022/03/06 05:23:37;;;;;;;7.15;5.43;;;3.70;67.10;;;;;;5031516;28;20037;-62
2022/03/06 05:26:03;;;;;;;9.80;5.78;;;3.60;67.40;;;;;;5043159;28;20067;-62
2022/03/06 05:28:29;;;;;;;9.90;6.25;;;3.60;67.70;;;;;;5051326;28;20039;-62
2022/03/06 05:30:55;;;;;;;8.50;5.80;;;3.60;67.70;;;;;;5047728;28;20124;-62
2022/03/06 05:33:20;;;;;;;9.80;6.72;;;3.60;67.50;;;;;;5050668;28;20033;-62
2022/03/06 05:35:49;;;;;;;9.07;6.10;;;3.50;67.40;;;;;;5050001;28;20051;-62
2022/03/06 05:38:15;;;;;;;9.07;5.85;;;3.50;67.70;;;;;;5051374;28;20029;-62
2022/03/06 05:40:40;;;;;;;9.48;5.55;;;3.50;67.80;;;;;;5030794;28;20036;-63
2022/03/06 05:43:06;;;;;;;10.35;6.05;;;3.50;67.70;;;;;;5031352;28;20072;-63
2022/03/06 05:45:31;;;;;;;9.75;6.53;;;3.50;67.70;;;;;;5036615;28;20127;-63
2022/03/06 05:47:58;;;;;;;8.40;5.78;;;3.60;67.00;;;;;;5051127;28;20215;-63
2022/03/06 05:50:24;;;;;;;9.50;6.47;;;3.60;67.60;;;;;;5049000;28;20036;-63
2022/03/06 05:52:49;;;;;;;9.05;5.35;;;3.60;66.80;;;;;;5050990;28;20029;-62
2022/03/06 05:55:15;;;;;;;9.60;6.25;;;3.50;67.10;;;;;;5048910;28;20051;-62
2022/03/06 05:57:41;;;;;;;11.45;6.90;;;3.50;67.10;;;;;;5050587;28;20041;-63
2022/03/06 06:00:08;;;;;;;8.95;6.40;;;3.50;67.00;;;;;;5046205;28;20653;-63
2022/03/06 06:02:34;;;;;;;11.60;6.65;;;3.50;66.50;;;;;;5042213;28;20048;-63
2022/03/06 06:05:00;;;;;;;9.45;7.00;;;3.40;66.80;;;;;;5045830;28;20171;-64
2022/03/06 06:07:26;;;;;;;10.13;6.68;;;3.40;66.50;;;;;;5033929;28;20108;-65
2022/03/06 06:09:51;;;;;;;8.35;6.60;;;3.40;66.40;;;;;;5044090;28;20068;-65
2022/03/06 06:12:17;;;;;;;9.55;7.57;;;3.40;66.80;;;;;;5049432;28;20485;-65
2022/03/06 06:14:42;;;;;;;11.00;6.72;;;3.40;66.60;;;;;;5047788;28;20029;-64
2022/03/06 06:17:08;;;;;;;9.48;6.63;;;3.40;66.70;;;;;;5049750;28;20111;-64
2022/03/06 06:19:33;;;;;;;8.50;6.35;;;3.40;66.30;;;;;;5049388;28;20475;-65
2022/03/06 06:21:59;;;;;;;10.65;7.25;;;3.50;66.80;;;;;;5029689;28;20033;-65
2022/03/06 06:24:24;;;;;;;10.02;6.53;;;3.50;66.50;;;;;;5035010;28;20365;-65
2022/03/06 06:26:53;;;;;;;8.00;6.53;;;3.50;66.80;;;;;;5041939;28;20204;-65
2022/03/06 06:29:19;;;;;;;10.77;7.15;;;3.50;65.90;;;;;;5034834;28;20033;-65
2022/03/06 06:31:44;;;;;;;11.55;7.68;;;3.50;65.90;;;;;;5043441;28;20024;-65
2022/03/06 06:34:10;;;;;;;9.43;7.15;;;3.50;66.00;;;;;;5049499;28;20093;-66
2022/03/06 06:36:36;;;;;;;9.25;6.43;;;3.50;65.80;;;;;;5032825;28;20041;-66
2022/03/06 06:39:01;;;;;;;9.20;5.90;;;3.50;65.80;;;;;;5047230;28;20028;-65
2022/03/06 06:41:27;;;;;;;11.20;6.25;;;3.50;65.10;;;;;;5034063;28;20048;-66
2022/03/06 06:43:52;;;;;;;8.68;5.43;;;3.50;65.40;;;;;;5049328;28;20045;-65
2022/03/06 06:46:18;;;;;;;6.90;5.57;;;3.50;65.80;;;;;;5047518;28;20634;-65
2022/03/06 06:48:44;;;;;;;7.95;5.65;;;3.60;66.10;;;;;;5038778;28;20033;-65
2022/03/06 06:51:09;;;;;;;9.10;6.65;;;3.60;66.10;;;;;;5048114;28;20033;-66
2022/03/06 06:53:36;;;;;;;8.65;5.90;;;3.70;66.10;;;;;;5049356;28;20033;-67
2022/03/06 06:56:01;;;;;;;7.82;5.90;;;3.70;66.10;;;;;;5047757;28;20552;-66
2022/03/06 06:58:27;;;;;;;8.95;6.05;;;3.80;65.90;;;;;;5049282;28;20040;-66
2022/03/06 07:00:52;;;;;;;8.68;5.70;;;3.70;65.60;;;;;;5048203;28;20033;-65
2022/03/06 07:03:18;;;;;;;7.13;5.75;;;3.70;65.80;;;;;;5040659;28;20048;-66
2022/03/06 07:05:45;;;;;;;7.13;5.93;;;3.70;65.80;;;;;;5048069;28;20037;-65
2022/03/06 07:08:11;;;;;;;7.35;5.22;;;3.70;65.70;;;;;;5036489;28;20033;-65
2022/03/06 07:10:36;;;;;;;8.60;5.78;;;3.70;65.70;;;;;;5037853;28;20059;-66
2022/03/06 07:13:02;;;;;;;8.85;5.70;;;3.70;65.60;;;;;;5040788;28;20033;-65
2022/03/06 07:15:32;;;;;;;7.30;5.22;;;3.70;65.40;;;;;;5047108;28;20395;-65
2022/03/06 07:17:59;;;;;;;9.75;6.25;;;3.70;65.50;;;;;;5044982;28;20025;-65
2022/03/06 07:20:25;;;;;;;8.68;6.30;;;3.80;65.70;;;;;;5043730;28;20029;-65
2022/03/06 07:22:50;;;;;;;8.52;6.47;;;3.80;65.90;;;;;;5034849;28;20036;-66
2022/03/06 07:25:16;;;;;;;9.95;7.57;;;3.90;66.00;;;;;;5043731;28;20479;-65
2022/03/06 07:27:41;;;;;;;10.32;5.75;;;3.90;65.90;;;;;;5052749;28;20104;-65
2022/03/06 07:30:08;;;;;;;7.05;6.30;;;3.90;65.30;;;;;;5050304;28;20080;-66
2022/03/06 07:32:40;;;;;;;9.57;6.28;;;3.90;65.30;;;;;;5052875;28;20107;-66
2022/03/06 07:35:06;;;;;;;7.15;5.85;;;3.90;65.00;;;;;;5033305;28;20489;-68
2022/03/06 07:37:32;;;;;;;6.93;6.22;;;4.00;65.10;;;;;;5041520;28;20036;-66
2022/03/06 07:39:57;;;;;;;9.73;6.68;;;4.00;64.70;;;;;;5050689;28;20059;-65
2022/03/06 07:42:23;;;;;;;9.02;6.40;;;3.90;64.50;;;;;;5048252;28;20104;-65
2022/03/06 07:44:48;;;;;;;8.60;7.43;;;3.80;64.50;;;;;;5047915;28;20762;-65
2022/03/06 07:47:14;;;;;;;10.30;7.22;;;3.90;64.80;;;;;;5049922;28;20167;-65
2022/03/06 07:49:39;;;;;;;9.50;7.55;;;3.80;64.80;;;;;;5050381;28;20401;-65
2022/03/06 07:52:05;;;;;;;8.45;6.63;;;3.80;65.10;;;;;;5035416;28;20021;-65
2022/03/06 07:54:30;;;;;;;10.10;8.10;;;3.80;65.20;;;;;;5043383;28;20086;-65
2022/03/06 07:56:56;;;;;;;10.32;7.32;;;3.80;65.50;;;;;;5051348;28;20025;-66
2022/03/06 07:59:24;;;;;;;12.65;8.25;;;3.80;65.70;;;;;;5022271;28;20022;-66
2022/03/06 08:01:50;;;;;;;10.05;8.65;;;3.90;65.60;;;;;;5035816;28;20040;-66
2022/03/06 08:04:15;;;;;;;10.35;8.90;;;3.80;65.40;;;;;;5048419;28;20040;-65
2022/03/06 08:06:41;;;;;;;11.02;9.23;;;3.80;65.80;;;;;;5040930;28;20018;-65
2022/03/06 08:09:06;;;;;;;14.38;10.25;;;3.80;66.00;;;;;;5034335;28;20040;-65
2022/03/06 08:11:32;;;;;;;9.95;8.93;;;3.70;66.30;;;;;;5043348;28;20059;-66
2022/03/06 08:13:57;;;;;;;12.73;9.30;;;3.70;66.40;;;;;;5041870;28;20033;-66
2022/03/06 08:16:23;;;;;;;12.93;9.00;;;3.70;66.50;;;;;;5039539;28;20044;-66
2022/03/06 08:18:48;;;;;;;13.48;8.88;;;3.70;66.60;;;;;;5037888;28;20130;-66
2022/03/06 08:21:14;;;;;;;16.00;9.13;;;3.70;66.70;;;;;;5049628;28;20025;-66
2022/03/06 08:23:39;;;;;;;11.40;8.45;;;3.70;66.90;;;;;;5049206;28;20039;-66
2022/03/06 08:26:05;;;;;;;11.40;9.18;;;3.80;67.10;;;;;;5044855;28;20038;-66
2022/03/06 08:28:30;;;;;;;13.60;9.27;;;3.60;67.10;;;;;;5045300;28;20041;-65
2022/03/06 08:30:56;;;;;;;12.13;10.40;;;3.70;67.40;;;;;;5050910;28;20033;-65
2022/03/06 08:33:21;;;;;;;10.93;8.60;;;3.70;67.50;;;;;;5050791;28;20374;-65
2022/03/06 08:35:47;;;;;;;10.27;8.15;;;3.80;68.00;;;;;;5044183;28;20024;-64
2022/03/06 08:38:12;;;;;;;11.35;9.00;;;3.60;67.90;;;;;;5051182;28;20504;-65
2022/03/06 08:40:37;;;;;;;12.75;10.02;;;3.60;68.30;;;;;;5045668;28;20032;-64
2022/03/06 08:43:03;;;;;;;11.30;8.57;;;3.50;68.60;;;;;;5037155;28;20099;-64
2022/03/06 08:45:29;;;;;;;11.07;8.13;;;3.50;68.90;;;;;;5049637;28;20057;-65
2022/03/06 08:47:54;;;;;;;9.45;7.70;;;3.50;69.00;;;;;;5033471;28;20021;-64
2022/03/06 08:50:20;;;;;;;11.85;7.97;;;3.50;69.10;;;;;;5048074;28;20032;-65
2022/03/06 08:52:45;;;;;;;9.45;7.90;;;3.60;69.40;;;;;;5035114;28;20400;-63
2022/03/06 08:55:11;;;;;;;11.45;7.30;;;3.60;69.50;;;;;;5050171;28;20456;-64
2022/03/06 08:57:37;;;;;;;11.10;8.45;;;3.60;69.70;;;;;;5044494;28;20071;-63
2022/03/06 09:00:04;;;;;;;13.32;7.45;;;3.60;69.90;;;;;;5040279;28;20029;-65
2022/03/06 09:02:30;;;;;;;8.18;7.05;;;3.60;70.00;;;;;;5050697;28;20091;-66
2022/03/06 09:04:55;;;;;;;12.10;7.57;;;3.60;70.10;;;;;;5049122;28;20038;-65
2022/03/06 09:07:21;;;;;;;12.35;7.65;;;3.70;70.40;;;;;;5037281;28;20438;-64
2022/03/06 09:09:47;;;;;;;9.18;7.05;;;3.70;70.40;;;;;;5036673;28;20040;-64
2022/03/06 09:12:12;;;;;;;10.30;6.95;;;3.60;70.60;;;;;;5050401;28;20033;-65
2022/03/06 09:14:38;;;;;;;11.82;6.90;;;3.70;70.60;;;;;;5048476;28;20066;-64
2022/03/06 09:17:04;;;;;;;9.55;7.05;;;3.70;70.60;;;;;;5047767;28;20033;-64
2022/03/06 09:19:29;;;;;;;15.27;8.55;;;3.80;70.70;;;;;;5040948;28;20028;-64
2022/03/06 09:21:54;;;;;;;8.90;6.88;;;3.80;70.80;;;;;;5045654;28;20488;-62
2022/03/06 09:24:20;;;;;;;9.38;7.30;;;3.90;70.60;;;;;;5065661;28;20035;-63
2022/03/06 09:26:47;;;;;;;8.82;7.32;;;3.90;70.60;;;;;;5050516;28;20071;-63
2022/03/06 09:29:12;;;;;;;10.55;6.50;;;4.00;70.50;;;;;;5060027;28;20718;-63
2022/03/06 09:31:39;;;;;;;13.45;7.68;;;4.00;70.50;;;;;;5049751;28;20041;-63
2022/03/06 09:34:05;;;;;;;10.45;7.53;;;4.00;70.60;;;;;;5050947;28;20021;-63
2022/03/06 09:36:31;;;;;;;9.02;6.75;;;4.00;70.60;;;;;;5048469;28;20091;-64
2022/03/06 09:38:56;;;;;;;9.00;6.82;;;4.00;70.50;;;;;;5051375;28;20478;-63
2022/03/06 09:41:26;;;;;;;10.93;6.70;;;4.10;70.50;;;;;;5048684;28;20764;-63
2022/03/06 09:43:56;;;;;;;9.00;6.50;;;4.20;70.40;;;;;;5032079;28;20037;-63
2022/03/06 09:46:22;;;;;;;10.75;7.47;;;4.20;70.20;;;;;;5049271;28;20484;-63
2022/03/06 09:48:49;;;;;;;11.85;7.22;;;4.30;70.10;;;;;;5052907;28;20028;-63
2022/03/06 09:51:15;;;;;;;10.65;6.90;;;4.30;70.10;;;;;;5046435;28;20039;-63
2022/03/06 09:53:40;;;;;;;9.80;6.57;;;4.40;69.80;;;;;;5031964;28;20108;-63
2022/03/06 09:56:06;;;;;;;7.75;5.53;;;4.30;69.70;;;;;;5035490;28;20068;-63
2022/03/06 09:58:32;;;;;;;9.40;6.60;;;4.30;69.30;;;;;;5045789;28;20519;-63
2022/03/06 10:00:57;;;;;;;9.13;6.10;;;4.30;69.60;;;;;;5048138;28;20043;-63
2022/03/06 10:03:24;;;;;;;10.07;6.82;;;4.30;69.40;;;;;;5047270;28;20046;-62
2022/03/06 10:05:50;;;;;;;7.82;5.88;;;4.40;69.50;;;;;;5044440;28;20036;-63
2022/03/06 10:08:24;;;;;;;9.13;7.38;;;4.40;68.90;;;;;;5055939;28;20037;-63
2022/03/06 10:10:57;;;;;;;8.75;6.85;;;4.30;68.80;;;;;;5030877;28;20381;-63
2022/03/06 10:13:31;;;;;;;9.77;6.35;;;4.30;69.20;;;;;;5053976;28;20044;-63
2022/03/06 10:15:59;;;;;;;7.05;6.03;;;4.30;68.40;;;;;;5048892;28;20076;-63
2022/03/06 10:18:24;;;;;;;9.13;6.22;;;4.30;68.40;;;;;;5062669;28;20119;-63
2022/03/06 10:20:50;;;;;;;8.38;5.80;;;4.20;68.90;;;;;;5070953;28;20403;-63
2022/03/06 10:23:26;;;;;;;8.43;6.32;;;4.20;69.00;;;;;;5050967;28;20072;-63
2022/03/06 10:26:05;;;;;;;8.35;5.53;;;4.20;69.20;;;;;;5030557;28;20052;-63
2022/03/06 10:28:41;;;;;;;14.82;7.88;;;4.40;69.00;;;;;;5045056;28;20029;-62
2022/03/06 10:31:07;;;;;;;9.38;6.55;;;4.50;68.80;;;;;;5032464;28;20025;-63
2022/03/06 10:33:32;;;;;;;8.75;6.03;;;4.40;68.20;;;;;;5061084;28;20074;-63
2022/03/06 10:36:01;;;;;;;8.40;6.05;;;4.40;68.30;;;;;;5056462;28;20489;-62
2022/03/06 10:38:32;;;;;;;10.10;6.10;;;4.50;68.40;;;;;;5063425;28;20120;-63
2022/03/06 10:41:17;;;;;;;7.75;6.07;;;4.50;68.00;;;;;;5050886;28;20076;-62
2022/03/06 10:43:43;;;;;;;8.13;6.15;;;4.60;68.50;;;;;;5058215;28;20024;-63
2022/03/06 10:46:11;;;;;;;9.93;6.10;;;4.60;68.20;;;;;;5030669;28;20533;-63
2022/03/06 10:48:38;;;;;;;7.13;5.75;;;4.60;67.50;;;;;;5034361;28;20098;-63
2022/03/06 10:51:07;;;;;;;8.60;6.05;;;4.60;67.40;;;;;;5033808;28;20025;-63
2022/03/06 10:53:33;;;;;;;9.00;5.78;;;4.70;67.60;;;;;;5054875;28;20411;-62
2022/03/06 10:56:05;;;;;;;7.72;5.97;;;4.80;67.90;;;;;;5070329;28;20032;-63
2022/03/06 10:58:32;;;;;;;10.10;6.90;;;4.90;67.70;;;;;;5041080;28;20032;-63
2022/03/06 11:00:58;;;;;;;8.90;6.32;;;4.90;67.30;;;;;;5048055;28;20459;-63
2022/03/06 11:03:25;;;;;;;7.07;6.15;;;5.00;67.90;;;;;;5053463;28;20056;-64
2022/03/06 11:05:51;;;;;;;7.13;5.65;;;5.00;66.80;;;;;;5043133;28;20147;-64
2022/03/06 11:08:18;;;;;;;6.88;5.63;;;4.90;65.60;;;;;;5045934;28;20029;-64
2022/03/06 11:10:44;;;;;;;6.00;5.40;;;4.80;64.10;;;;;;5046664;28;20020;-63
2022/03/06 11:13:13;;;;;;;7.65;6.75;;;4.70;64.60;;;;;;5036498;28;20492;-62
2022/03/06 11:15:40;;;;;;;8.75;6.43;;;4.70;65.00;;;;;;5043520;28;20031;-63
2022/03/06 11:18:06;;;;;;;6.22;5.32;;;4.70;64.30;;;;;;5040851;28;20044;-64
2022/03/06 11:20:32;;;;;;;7.35;5.50;;;4.70;64.60;;;;;;5048142;28;20025;-64
2022/03/06 11:23:34;;;;;;;8.38;6.20;;;4.70;64.10;;;;;;5039266;28;20029;-63
2022/03/06 11:26:09;;;;;;;6.97;6.10;;;4.70;64.20;;;;;;5040736;28;20042;-64
2022/03/06 11:28:46;;;;;;;7.20;5.30;;;4.70;64.20;;;;;;5037347;28;20421;-62
2022/03/06 11:31:11;;;;;;;7.32;6.35;;;4.70;64.60;;;;;;5045563;28;20032;-63
2022/03/06 11:33:42;;;;;;;7.03;5.63;;;4.90;65.30;;;;;;5049017;28;20024;-63
2022/03/06 11:36:19;;;;;;;7.68;5.38;;;4.90;63.60;;;;;;5043912;28;20035;-63
2022/03/06 11:38:48;;;;;;;6.22;5.13;;;5.00;63.60;;;;;;5043413;28;20484;-64
2022/03/06 11:41:14;;;;;;;6.55;5.63;;;5.00;63.30;;;;;;5050307;28;20053;-64
2022/03/06 11:43:44;;;;;;;8.45;6.80;;;5.00;63.20;;;;;;5045085;28;20037;-63
2022/03/06 11:46:26;;;;;;;6.35;5.38;;;5.00;62.90;;;;;;5049124;28;20044;-64
2022/03/06 11:48:51;;;;;;;6.40;5.15;;;5.00;63.20;;;;;;5051571;28;20480;-64
2022/03/06 11:51:30;;;;;;;8.20;5.50;;;5.10;63.40;;;;;;5064561;28;20024;-64
2022/03/06 11:54:10;;;;;;;9.43;5.63;;;5.20;63.20;;;;;;5061704;28;20480;-64
2022/03/06 11:56:35;;;;;;;6.72;5.53;;;5.30;63.20;;;;;;5053840;28;20043;-64
2022/03/06 11:59:26;;;;;;;6.13;5.30;;;5.30;62.60;;;;;;5047596;28;20038;-63
2022/03/06 12:01:59;;;;;;;6.43;5.47;;;5.20;61.60;;;;;;5044793;28;20033;-63
2022/03/06 12:04:29;;;;;;;7.28;5.68;;;5.30;62.30;;;;;;5057265;28;20535;-64
2022/03/06 12:06:56;;;;;;;7.30;5.80;;;5.40;62.50;;;;;;5054315;28;20026;-65
2022/03/06 12:09:28;;;;;;;6.47;5.57;;;5.40;61.80;;;;;;5035812;28;20028;-65
2022/03/06 12:11:57;;;;;;;6.35;5.60;;;5.50;61.70;;;;;;5044179;28;20400;-64
2022/03/06 12:14:28;;;;;;;9.32;5.65;;;5.60;59.90;;;;;;5017386;28;20521;-64
2022/03/06 12:17:02;;;;;;;6.20;4.45;;;5.50;59.20;;;;;;5029899;28;20120;-64
2022/03/06 12:19:54;;;;;;;;;;;5.50;60.00;;;;;;5030936;28;20060;-64
2022/03/06 12:22:28;;;;;;;5.88;5.18;;;5.50;60.00;;;;;;5031182;28;19928;-64
2022/03/06 12:25:06;;;;;;;7.72;4.88;;;5.50;60.40;;;;;;5032671;28;20049;-64
2022/03/06 12:27:32;;;;;;;4.93;4.28;;;5.50;59.50;;;;;;5031922;28;20164;-64
2022/03/06 12:30:00;;;;;;;23.15;4.78;;;5.40;59.40;;;;;;5031876;28;20453;-64
2022/03/06 12:32:25;;;;;;;5.53;3.35;;;5.40;60.20;;;;;;5030414;28;20029;-63
2022/03/06 12:34:57;;;;;;;4.82;3.05;;;5.40;59.90;;;;;;5031623;28;20052;-61
2022/03/06 12:37:31;;;;;;;4.45;3.38;;;5.40;60.10;;;;;;5031699;28;20606;-62
2022/03/06 12:39:58;;;;;;;3.22;2.78;;;5.40;60.20;;;;;;5031354;28;20579;-63
2022/03/06 12:42:30;;;;;;;4.80;2.85;;;5.50;60.30;;;;;;5031542;28;20024;-63
2022/03/06 12:44:59;;;;;;;5.20;3.20;;;5.50;60.40;;;;;;5014065;28;20394;-64
2022/03/06 12:47:26;;;;;;;4.20;2.97;;;5.50;60.10;;;;;;5030799;28;20091;-64
2022/03/06 12:49:53;;;;;;;3.20;2.40;;;5.50;59.70;;;;;;5032234;28;20037;-64